createdAt,value
2024-01-05T00:01:28.874Z,88843.81
2024-01-05T00:03:55.382Z,88846.81
2024-01-05T00:06:21.842Z,88852.44
2024-01-05T00:08:48.302Z,88848.03
2024-01-05T00:11:14.618Z,88833.63
2024-01-05T00:13:40.892Z,88827.88
2024-01-05T00:16:07.166Z,88818.44
2024-01-05T00:18:33.554Z,88822.78
2024-01-05T00:20:59.913Z,88826.03
2024-01-05T00:23:26.206Z,88820.97
2024-01-05T00:25:52.490Z,88815.78
2024-01-05T00:28:18.798Z,88816.19
2024-01-05T00:30:45.105Z,88816.78
2024-01-05T00:33:11.531Z,88814.56
2024-01-05T00:35:37.912Z,88808.16
2024-01-05T00:38:04.188Z,88802.53
2024-01-05T00:40:30.456Z,88806.81
2024-01-05T00:42:56.716Z,88807.00
2024-01-05T00:45:23.009Z,88796.31
2024-01-05T00:47:49.602Z,88794.75
2024-01-05T00:50:15.981Z,88793.44
2024-01-05T00:52:42.268Z,88800.72
2024-01-05T00:55:08.550Z,88800.63
2024-01-05T00:57:34.945Z,88806.03
2024-01-05T01:00:01.272Z,88816.28
2024-01-05T01:02:27.578Z,88816.06
2024-01-05T01:04:53.969Z,88818.78
2024-01-05T01:07:20.258Z,88825.59
2024-01-05T01:09:46.550Z,88834.31
2024-01-05T01:12:12.869Z,88820.75
2024-01-05T01:14:39.143Z,88822.78
2024-01-05T01:17:05.396Z,88826.59
2024-01-05T01:19:31.798Z,88826.78
2024-01-05T01:21:58.193Z,88837.13
2024-01-05T01:24:24.491Z,88836.56
2024-01-05T01:26:50.810Z,88835.59
2024-01-05T01:29:17.111Z,88847.22
2024-01-05T01:31:43.374Z,88841.06
2024-01-05T01:34:09.706Z,88835.88
2024-01-05T01:36:36.230Z,88836.66
2024-01-05T01:39:02.605Z,88842.03
2024-01-05T01:41:28.981Z,88846.63
2024-01-05T01:43:55.252Z,88856.94
2024-01-05T01:46:21.635Z,88850.22
2024-01-05T01:48:48.194Z,88845.84
2024-01-05T01:51:14.732Z,88851.72
2024-01-05T01:53:41.063Z,88842.13
2024-01-05T01:56:07.337Z,88829.81
2024-01-05T01:58:33.625Z,88833.41
2024-01-05T02:00:59.913Z,88812.56
2024-01-05T02:03:26.348Z,88807.34
2024-01-05T02:05:52.769Z,88801.75
2024-01-05T02:08:19.129Z,88780.44
2024-01-05T02:10:45.407Z,88774.00
2024-01-05T02:13:11.736Z,88756.72
2024-01-05T02:15:38.083Z,88762.63
2024-01-05T02:18:04.566Z,88769.22
2024-01-05T02:20:30.893Z,88754.09
2024-01-05T02:22:57.183Z,88760.78
2024-01-05T02:25:23.475Z,88757.09
2024-01-05T02:27:49.803Z,88760.59
2024-01-05T02:30:16.223Z,88765.13
2024-01-05T02:35:40.321Z,88759.41
2024-01-05T02:38:06.585Z,88750.75
2024-01-05T02:40:32.893Z,88749.50
2024-01-05T02:42:59.227Z,88747.47
2024-01-05T02:45:25.636Z,88753.69
2024-01-05T02:47:52.120Z,88757.19
2024-01-05T02:50:18.482Z,88748.94
2024-01-05T02:52:44.782Z,88743.34
2024-01-05T02:55:11.091Z,88743.28
2024-01-05T02:57:37.396Z,88744.06
2024-01-05T03:00:03.805Z,88754.34
2024-01-05T03:02:30.146Z,88749.50
2024-01-05T03:04:56.485Z,88748.72
2024-01-05T03:07:22.765Z,88741.03
2024-01-05T03:09:49.042Z,88739.34
2024-01-05T03:12:15.330Z,88738.22
2024-01-05T03:14:41.719Z,88736.47
2024-01-05T03:17:07.985Z,88726.53
2024-01-05T03:19:34.386Z,88717.38
2024-01-05T03:22:00.713Z,88725.66
2024-01-05T03:24:27.069Z,88725.75
2024-01-05T03:26:53.404Z,88725.66
2024-01-05T03:29:19.701Z,88717.16
2024-01-05T03:31:45.973Z,88713.81
2024-01-05T03:34:12.341Z,88712.66
2024-01-05T03:36:38.734Z,88717.78
2024-01-05T03:39:05.069Z,88715.22
2024-01-05T03:41:31.392Z,88715.22
2024-01-05T03:43:57.665Z,88707.97
2024-01-05T03:46:23.945Z,88710.34
2024-01-05T03:48:50.350Z,88709.03
2024-01-05T03:51:16.792Z,88710.75
2024-01-05T03:53:43.082Z,88708.56
2024-01-05T03:56:09.348Z,88705.03
2024-01-05T03:58:35.609Z,88693.66
2024-01-05T04:01:02.021Z,88694.19
2024-01-05T04:03:28.397Z,88688.03
2024-01-05T04:05:54.805Z,88681.50
2024-01-05T04:08:21.156Z,88668.53
2024-01-05T04:10:47.435Z,88674.81
2024-01-05T04:13:33.692Z,88679.19
2024-01-05T04:15:59.982Z,88676.91
2024-01-05T04:18:26.369Z,88672.72
2024-01-05T04:20:52.746Z,88662.78
2024-01-05T04:23:19.023Z,88655.09
2024-01-05T04:25:45.453Z,88654.84
2024-01-05T04:28:11.727Z,88664.22
2024-01-05T04:30:38.102Z,88653.41
2024-01-05T04:33:04.607Z,88649.34
2024-01-05T04:35:31.014Z,88648.56
2024-01-05T04:37:57.308Z,88656.34
2024-01-05T04:40:23.615Z,88649.88
2024-01-05T04:42:49.891Z,88643.66
2024-01-05T04:45:16.195Z,88639.25
2024-01-05T04:47:42.547Z,88640.03
2024-01-05T04:50:08.842Z,88638.56
2024-01-05T04:52:35.106Z,88635.59
2024-01-05T04:55:01.395Z,88635.72
2024-01-05T04:57:27.776Z,88629.47
2024-01-05T04:59:54.112Z,88626.06
2024-01-05T05:02:20.409Z,88628.31
2024-01-05T05:04:48.759Z,88629.84
2024-01-05T05:07:15.305Z,88623.78
2024-01-05T05:09:41.644Z,88616.50
2024-01-05T05:12:07.980Z,88628.56
2024-01-05T05:14:34.270Z,88628.50
2024-01-05T05:17:00.555Z,88620.50
2024-01-05T05:19:26.920Z,88620.44
2024-01-05T05:21:53.330Z,88616.16
2024-01-05T05:24:19.642Z,88621.38
2024-01-05T05:26:45.934Z,88616.78
2024-01-05T05:29:12.226Z,88625.13
2024-01-05T05:31:38.544Z,88619.44
2024-01-05T05:34:04.932Z,88609.41
2024-01-05T05:36:31.275Z,88615.28
2024-01-05T05:38:57.569Z,88616.84
2024-01-05T05:41:23.879Z,88625.97
2024-01-05T05:43:50.175Z,88632.19
2024-01-05T05:46:16.461Z,88631.16
2024-01-05T05:48:42.864Z,88631.81
2024-01-05T05:51:09.270Z,88643.47
2024-01-05T05:53:35.597Z,88647.75
2024-01-05T05:56:01.873Z,88651.31
2024-01-05T05:58:28.149Z,88643.88
2024-01-05T06:00:54.585Z,88645.88
2024-01-05T06:03:20.974Z,88644.78
2024-01-05T06:05:47.359Z,88649.94
2024-01-05T06:08:13.752Z,88639.03
2024-01-05T06:10:40.015Z,88653.03
2024-01-05T06:13:06.304Z,88654.28
2024-01-05T06:15:33.443Z,88654.63
2024-01-05T06:17:59.918Z,88653.97
2024-01-05T06:20:26.282Z,88663.00
2024-01-05T06:22:52.569Z,88657.84
2024-01-05T06:25:18.841Z,88660.06
2024-01-05T06:27:45.171Z,88661.75
2024-01-05T06:30:11.619Z,88659.22
2024-01-05T06:32:37.989Z,88663.38
2024-01-05T06:35:04.286Z,88663.03
2024-01-05T06:37:30.573Z,88665.41
2024-01-05T06:39:56.853Z,88656.00
2024-01-05T06:42:23.156Z,88649.97
2024-01-05T06:44:49.589Z,88649.06
2024-01-05T06:47:15.921Z,88658.97
2024-01-05T06:49:42.387Z,88653.22
2024-01-05T06:52:08.905Z,88651.94
2024-01-05T06:54:35.224Z,88660.66
2024-01-05T06:57:01.556Z,88656.69
2024-01-05T06:59:27.947Z,88647.66
2024-01-05T07:01:54.300Z,88640.94
2024-01-05T07:04:20.584Z,88646.84
2024-01-05T07:06:46.851Z,88644.50
2024-01-05T07:09:13.169Z,88642.13
2024-01-05T07:11:39.432Z,88643.97
2024-01-05T07:14:05.701Z,88644.28
2024-01-05T07:16:31.976Z,88639.31
2024-01-05T07:18:58.361Z,88644.28
2024-01-05T07:21:24.701Z,88643.25
2024-01-05T07:23:50.988Z,88637.56
2024-01-05T07:26:17.262Z,88642.63
2024-01-05T07:28:43.560Z,88633.38
2024-01-05T07:31:09.984Z,88631.38
2024-01-05T07:33:36.393Z,88633.53
2024-01-05T07:36:02.771Z,88638.47
2024-01-05T07:38:29.111Z,88640.00
2024-01-05T07:40:55.372Z,88641.84
2024-01-05T07:43:21.628Z,88637.94
2024-01-05T07:45:48.503Z,88639.41
2024-01-05T07:48:15.964Z,88631.25
2024-01-05T07:50:42.308Z,88642.59
2024-01-05T07:53:08.635Z,88643.91
2024-01-05T07:55:34.901Z,88637.75
2024-01-05T07:58:01.176Z,88643.72
2024-01-05T08:00:27.594Z,88645.84
2024-01-05T08:02:54.001Z,88638.84
2024-01-05T08:05:21.163Z,88634.28
2024-01-05T08:07:47.439Z,88632.81
2024-01-05T08:10:13.716Z,88626.13
2024-01-05T08:12:40.039Z,88631.34
2024-01-05T08:15:06.436Z,88624.66
2024-01-05T08:17:32.771Z,88628.72
2024-01-05T08:19:59.125Z,88632.66
2024-01-05T08:22:25.444Z,88629.22
2024-01-05T08:24:51.704Z,88632.47
2024-01-05T08:27:17.997Z,88624.16
2024-01-05T08:29:44.302Z,88627.56
2024-01-05T08:32:10.641Z,88632.59
2024-01-05T08:34:37.076Z,88632.50
2024-01-05T08:37:03.394Z,88630.25
2024-01-05T08:39:29.766Z,88632.38
2024-01-05T08:41:56.124Z,88619.66
2024-01-05T08:44:22.413Z,88624.34
2024-01-05T08:46:48.725Z,88625.00
2024-01-05T08:49:15.091Z,88623.81
2024-01-05T08:51:41.403Z,88632.16
2024-01-05T08:54:07.757Z,88638.34
2024-01-05T08:56:34.074Z,88640.31
2024-01-05T08:59:00.345Z,88641.47
2024-01-05T09:01:26.697Z,88638.28
2024-01-05T09:03:53.093Z,88639.63
2024-01-05T09:06:19.475Z,88637.88
2024-01-05T09:08:45.823Z,88639.66
2024-01-05T09:11:12.105Z,88647.16
2024-01-05T09:13:39.430Z,88639.88
2024-01-05T09:16:05.923Z,88645.66
2024-01-05T09:18:32.321Z,88640.00
2024-01-05T09:20:58.709Z,88650.25
2024-01-05T09:23:25.014Z,88647.78
2024-01-05T09:25:51.289Z,88653.34
2024-01-05T09:28:17.594Z,88651.38
2024-01-05T09:30:44.057Z,88652.34
2024-01-05T09:33:10.638Z,88652.66
2024-01-05T09:35:36.947Z,88655.41
2024-01-05T09:38:03.212Z,88661.38
2024-01-05T09:40:29.576Z,88655.31
2024-01-05T09:42:55.873Z,88667.13
2024-01-05T09:45:22.172Z,88665.41
2024-01-05T09:47:48.574Z,88675.50
2024-01-05T09:50:15.074Z,88667.03
2024-01-05T09:52:41.437Z,88672.97
2024-01-05T09:55:07.732Z,88681.72
2024-01-05T09:57:34.056Z,88689.63
2024-01-05T10:00:00.666Z,88681.25
2024-01-05T10:02:27.041Z,88700.97
2024-01-05T10:04:53.322Z,88701.81
2024-01-05T10:07:19.608Z,88691.63
2024-01-05T10:09:45.937Z,88696.66
2024-01-05T10:12:12.271Z,88703.09
2024-01-05T10:14:38.564Z,88695.53
2024-01-05T10:17:04.849Z,88698.94
2024-01-05T10:19:31.198Z,88702.22
2024-01-05T10:21:57.598Z,88701.31
2024-01-05T10:24:24.726Z,88697.81
2024-01-05T10:26:51.371Z,88686.22
2024-01-05T10:29:17.647Z,88681.50
2024-01-05T10:31:44.018Z,88683.25
2024-01-05T10:34:10.409Z,88679.97
2024-01-05T10:36:37.040Z,88680.22
2024-01-05T10:39:03.529Z,88668.00
2024-01-05T10:41:29.822Z,88653.50
2024-01-05T10:43:56.141Z,88658.06
2024-01-05T10:46:22.522Z,88664.94
2024-01-05T10:48:48.980Z,88650.31
2024-01-05T10:51:15.493Z,88650.56
2024-01-05T10:53:41.799Z,88654.81
2024-01-05T10:56:08.081Z,88658.63
2024-01-05T10:58:34.362Z,88651.53
2024-01-05T11:01:00.823Z,88639.31
2024-01-05T11:03:27.261Z,88633.28
2024-01-05T11:05:53.620Z,88629.88
2024-01-05T11:08:19.913Z,88627.25
2024-01-05T11:10:46.180Z,88623.69
2024-01-05T11:13:12.444Z,88619.75
2024-01-05T11:15:38.888Z,88614.72
2024-01-05T11:18:05.375Z,88613.66
2024-01-05T11:20:31.732Z,88613.25
2024-01-05T11:22:58.014Z,88608.97
2024-01-05T11:25:24.286Z,88608.13
2024-01-05T11:27:50.616Z,88599.22
2024-01-05T11:30:17.008Z,88595.69
2024-01-05T11:32:43.585Z,88587.28
2024-01-05T11:35:10.122Z,88569.00
2024-01-05T11:37:36.410Z,88574.50
2024-01-05T11:40:02.688Z,88591.78
2024-01-05T11:42:29.106Z,88577.34
2024-01-05T11:44:55.441Z,88557.81
2024-01-05T11:47:21.761Z,88552.31
2024-01-05T11:49:48.248Z,88558.47
2024-01-05T11:52:14.569Z,88545.09
2024-01-05T11:54:40.942Z,88534.22
2024-01-05T11:57:07.220Z,88529.56
2024-01-05T11:59:33.545Z,88531.28
2024-01-05T12:01:59.817Z,88525.03
2024-01-05T12:04:26.222Z,88508.78
2024-01-05T12:06:52.599Z,88512.84
2024-01-05T12:09:18.942Z,88502.34
2024-01-05T12:11:45.246Z,88507.63
2024-01-05T12:14:11.523Z,88497.63
2024-01-05T12:16:37.797Z,88496.97
2024-01-05T12:19:04.461Z,88496.47
2024-01-05T12:21:30.975Z,88501.44
2024-01-05T12:23:57.898Z,88498.22
2024-01-05T12:26:24.609Z,88484.84
2024-01-05T12:28:51.047Z,88485.16
2024-01-05T12:31:17.603Z,88491.50
2024-01-05T12:33:44.130Z,88483.47
2024-01-05T12:36:11.313Z,88476.63
2024-01-05T12:38:37.925Z,88477.56
2024-01-05T12:41:04.216Z,88487.38
2024-01-05T12:43:30.506Z,88480.44
2024-01-05T12:45:56.854Z,88476.91
2024-01-05T12:48:23.231Z,88474.63
2024-01-05T12:50:49.571Z,88486.06
2024-01-05T12:53:15.905Z,88493.50
2024-01-05T12:55:42.218Z,88492.06
2024-01-05T12:58:08.482Z,88491.09
2024-01-05T13:00:34.815Z,88485.56
2024-01-05T13:03:01.157Z,88487.19
2024-01-05T13:05:27.443Z,88489.97
2024-01-05T13:07:53.746Z,88486.94
2024-01-05T13:10:20.028Z,88493.66
2024-01-05T13:12:46.386Z,88497.28
2024-01-05T13:15:12.788Z,88500.22
2024-01-05T13:17:39.101Z,88499.72
2024-01-05T13:20:05.438Z,88508.75
2024-01-05T13:22:34.760Z,88506.47
2024-01-05T13:25:02.009Z,88499.84
2024-01-05T13:27:28.374Z,88497.97
2024-01-05T13:29:54.695Z,88498.78
2024-01-05T13:32:21.073Z,88502.56
2024-01-05T13:34:47.484Z,88508.19
2024-01-05T13:37:13.864Z,88509.16
2024-01-05T13:39:40.240Z,88508.47
2024-01-05T13:42:06.718Z,88502.41
2024-01-05T13:44:33.055Z,88494.78
2024-01-05T13:46:59.323Z,88493.16
2024-01-05T13:49:27.218Z,88501.09
2024-01-05T13:51:53.690Z,88495.72
2024-01-05T13:54:19.959Z,88489.63
2024-01-05T13:56:46.267Z,88481.16
2024-01-05T13:59:12.533Z,88478.53
2024-01-05T14:01:41.201Z,88479.25
2024-01-05T14:04:07.705Z,88474.34
2024-01-05T14:06:34.027Z,88476.28
2024-01-05T14:09:00.363Z,88478.28
2024-01-05T14:11:26.662Z,88475.94
2024-01-05T14:13:52.948Z,88475.69
2024-01-05T14:16:19.237Z,88466.81
2024-01-05T14:18:45.617Z,88464.28
2024-01-05T14:21:11.984Z,88454.97
2024-01-05T14:23:38.466Z,88462.81
2024-01-05T14:26:04.792Z,88453.47
2024-01-05T14:28:31.065Z,88458.75
2024-01-05T14:30:57.405Z,88456.75
2024-01-05T14:33:23.858Z,88449.22
2024-01-05T14:35:50.207Z,88445.97
2024-01-05T14:38:16.491Z,88450.31
2024-01-05T14:40:42.757Z,88448.75
2024-01-05T14:43:09.092Z,88441.66
2024-01-05T14:45:35.366Z,88445.78
2024-01-05T14:48:02.024Z,88441.69
2024-01-05T14:50:28.589Z,88445.03
2024-01-05T14:53:03.627Z,88436.97
2024-01-05T14:55:34.571Z,88436.44
2024-01-05T14:58:00.847Z,88432.19
2024-01-05T15:00:27.155Z,88435.28
2024-01-05T15:02:53.460Z,88432.34
2024-01-05T15:05:19.750Z,88427.63
2024-01-05T15:07:46.027Z,88430.81
2024-01-05T15:10:12.302Z,88425.69
2024-01-05T15:12:38.619Z,88422.75
2024-01-05T15:15:07.291Z,88417.59
2024-01-05T15:17:34.429Z,88423.41
2024-01-05T15:20:00.966Z,88409.16
2024-01-05T15:22:27.345Z,88405.97
2024-01-05T15:24:53.656Z,88409.75
2024-01-05T15:27:20.975Z,88408.56
2024-01-05T15:29:47.236Z,88414.00
2024-01-05T15:32:13.516Z,88419.94
2024-01-05T15:34:39.875Z,88428.19
2024-01-05T15:37:06.251Z,88433.16
2024-01-05T15:39:32.557Z,88434.22
2024-01-05T15:41:58.845Z,88422.59
2024-01-05T15:44:26.844Z,88427.13
2024-01-05T15:46:53.173Z,88420.31
2024-01-05T15:49:19.521Z,88419.66
2024-01-05T15:51:45.930Z,88413.31
2024-01-05T15:54:12.414Z,88413.81
2024-01-05T15:56:38.744Z,88411.34
2024-01-05T15:59:05.023Z,88406.78
2024-01-05T16:01:31.348Z,88402.88
2024-01-05T16:03:57.835Z,88404.06
2024-01-05T16:06:24.182Z,88408.34
2024-01-05T16:08:50.464Z,88410.13
2024-01-05T16:11:16.739Z,88408.41
2024-01-05T16:13:43.006Z,88405.50
2024-01-05T16:16:09.269Z,88413.16
2024-01-05T16:18:35.673Z,88403.72
2024-01-05T16:21:03.186Z,88398.34
2024-01-05T16:23:29.474Z,88402.75
2024-01-05T16:25:55.771Z,88404.06
2024-01-05T16:28:22.049Z,88408.91
2024-01-05T16:30:48.395Z,88400.63
2024-01-05T16:33:14.889Z,88403.06
2024-01-05T16:35:41.326Z,88403.38
2024-01-05T16:38:07.596Z,88404.84
2024-01-05T16:40:33.907Z,88407.69
2024-01-05T16:43:00.186Z,88401.38
2024-01-05T16:45:26.483Z,88406.81
2024-01-05T16:47:52.852Z,88405.00
2024-01-05T16:50:19.191Z,88411.53
2024-01-05T16:52:45.465Z,88413.66
2024-01-05T16:55:11.739Z,88411.72
2024-01-05T16:57:38.153Z,88414.31
2024-01-05T17:00:04.532Z,88404.22
2024-01-05T17:02:30.866Z,88408.91
2024-01-05T17:04:57.162Z,88415.84
2024-01-05T17:07:23.453Z,88407.75
2024-01-05T17:09:49.815Z,88406.97
2024-01-05T17:12:16.098Z,88403.53
2024-01-05T17:14:42.406Z,88402.25
2024-01-05T17:17:08.686Z,88409.88
2024-01-05T17:19:35.129Z,88407.03
2024-01-05T17:22:01.540Z,88409.56
2024-01-05T17:24:27.841Z,88410.88
2024-01-05T17:26:54.145Z,88406.16
2024-01-05T17:29:20.497Z,88409.25
2024-01-05T17:31:46.855Z,88420.41
2024-01-05T17:34:13.240Z,88411.78
2024-01-05T17:36:39.605Z,88419.97
2024-01-05T17:39:05.902Z,88418.94
2024-01-05T17:41:32.196Z,88412.09
2024-01-05T17:43:58.521Z,88417.50
2024-01-05T17:46:24.798Z,88416.97
2024-01-05T17:48:51.171Z,88420.25
2024-01-05T17:51:17.531Z,88417.09
2024-01-05T17:53:43.831Z,88421.25
2024-01-05T17:56:10.135Z,88420.69
2024-01-05T17:58:36.423Z,88413.59
2024-01-05T18:01:04.204Z,88420.69
2024-01-05T18:03:32.066Z,88425.81
2024-01-05T18:05:58.404Z,88415.28
2024-01-05T18:08:24.701Z,88413.72
2024-01-05T18:10:50.971Z,88413.66
2024-01-05T18:13:17.258Z,88409.41
2024-01-05T18:15:43.542Z,88409.34
2024-01-05T18:18:10.035Z,88411.94
2024-01-05T18:20:36.433Z,88406.97
2024-01-05T18:23:02.717Z,88411.59
2024-01-05T18:25:31.232Z,88405.34
2024-01-05T18:27:59.004Z,88411.53
2024-01-05T18:30:26.374Z,88418.69
2024-01-05T18:32:52.764Z,88413.16
2024-01-05T18:35:19.097Z,88417.28
2024-01-05T18:37:45.394Z,88415.91
2024-01-05T18:40:11.693Z,88410.72
2024-01-05T18:42:38.012Z,88414.03
2024-01-05T18:45:04.408Z,88411.22
2024-01-05T18:47:30.727Z,88409.00
2024-01-05T18:49:57.157Z,88403.06
2024-01-05T18:52:23.532Z,88402.91
2024-01-05T18:54:49.944Z,88408.44
2024-01-05T18:57:16.293Z,88405.50
2024-01-05T18:59:42.611Z,88401.38
2024-01-05T19:02:08.888Z,88406.16
2024-01-05T19:04:35.298Z,88406.88
2024-01-05T19:07:01.732Z,88404.66
2024-01-05T19:09:28.090Z,88409.31
2024-01-05T19:11:54.387Z,88408.09
2024-01-05T19:14:20.721Z,88405.09
2024-01-05T19:16:47.002Z,88401.03
2024-01-05T19:19:15.702Z,88410.44
2024-01-05T19:21:49.587Z,88413.47
2024-01-05T19:24:22.006Z,88409.09
2024-01-05T19:26:48.296Z,88413.31
2024-01-05T19:29:14.595Z,88411.19
2024-01-05T19:31:40.933Z,88410.84
2024-01-05T19:34:07.431Z,88406.31
2024-01-05T19:36:33.777Z,88417.72
2024-01-05T19:39:00.057Z,88413.31
2024-01-05T19:41:26.376Z,88413.53
2024-01-05T19:43:52.674Z,88416.00
2024-01-05T19:46:18.956Z,88412.22
2024-01-05T19:48:45.801Z,88418.69
2024-01-05T19:51:12.221Z,88418.31
2024-01-05T19:53:38.533Z,88421.34
2024-01-05T19:56:04.814Z,88423.13
2024-01-05T19:58:31.088Z,88424.38
2024-01-05T20:00:57.438Z,88413.38
2024-01-05T20:03:24.203Z,88428.78
2024-01-05T20:05:50.597Z,88416.31
2024-01-05T20:08:16.886Z,88410.63
2024-01-05T20:10:43.348Z,88414.19
2024-01-05T20:13:09.702Z,88411.69
2024-01-05T20:15:36.020Z,88416.63
2024-01-05T20:18:02.411Z,88409.50
2024-01-05T20:20:28.797Z,88403.63
2024-01-05T20:22:55.062Z,88399.63
2024-01-05T20:25:22.206Z,88384.81
2024-01-05T20:27:48.946Z,88395.13
2024-01-05T20:30:15.500Z,88392.16
2024-01-05T20:32:42.026Z,88390.13
2024-01-05T20:35:08.365Z,88388.19
2024-01-05T20:37:34.663Z,88387.28
2024-01-05T20:40:00.922Z,88391.34
2024-01-05T20:42:27.286Z,88386.91
2024-01-05T20:44:53.569Z,88382.56
2024-01-05T20:47:19.840Z,88382.22
2024-01-05T20:49:46.270Z,88382.22
2024-01-05T20:52:12.614Z,88376.00
2024-01-05T20:54:38.905Z,88381.09
2024-01-05T20:57:05.276Z,88382.22
2024-01-05T20:59:31.594Z,88379.63
2024-01-05T21:01:57.861Z,88378.81
2024-01-05T21:04:24.193Z,88374.66
2024-01-05T21:06:50.570Z,88372.94
2024-01-05T21:09:16.942Z,88369.88
2024-01-05T21:11:43.276Z,88368.47
2024-01-05T21:14:09.550Z,88369.63
2024-01-05T21:16:35.826Z,88365.78
2024-01-05T21:19:02.209Z,88356.47
2024-01-05T21:21:28.725Z,88359.19
2024-01-05T21:23:55.108Z,88361.56
2024-01-05T21:26:21.377Z,88364.91
2024-01-05T21:28:47.652Z,88361.03
2024-01-05T21:31:14.044Z,88360.69
2024-01-05T21:33:40.473Z,88361.84
2024-01-05T21:36:06.804Z,88368.72
2024-01-05T21:38:33.129Z,88373.13
2024-01-05T21:40:59.416Z,88363.22
2024-01-05T21:43:25.771Z,88369.38
2024-01-05T21:45:52.129Z,88368.56
2024-01-05T21:48:18.615Z,88373.63
2024-01-05T21:50:45.012Z,88374.78
2024-01-05T21:53:11.338Z,88378.75
2024-01-05T21:55:37.615Z,88377.03
2024-01-05T21:58:03.941Z,88382.56
2024-01-05T22:00:30.312Z,88375.56
2024-01-05T22:02:56.699Z,88376.72
2024-01-05T22:05:23.070Z,88377.66
2024-01-05T22:07:49.366Z,88377.66
2024-01-05T22:10:15.701Z,88376.06
2024-01-05T22:12:42.023Z,88367.78
2024-01-05T22:15:08.377Z,88367.78
2024-01-05T22:17:34.801Z,88373.28
2024-01-05T22:20:01.281Z,88375.81
2024-01-05T22:22:27.638Z,88375.00
2024-01-05T22:24:53.982Z,88373.66
2024-01-05T22:27:20.317Z,88382.34
2024-01-05T22:29:46.661Z,88375.03
2024-01-05T22:32:12.952Z,88372.84
2024-01-05T22:34:39.564Z,88374.81
2024-01-05T22:37:05.899Z,88367.28
2024-01-05T22:39:32.208Z,88372.66
2024-01-05T22:41:58.485Z,88377.91
2024-01-05T22:44:24.778Z,88372.91
2024-01-05T22:46:51.079Z,88370.31
2024-01-05T22:49:17.513Z,88372.28
2024-01-05T22:51:43.991Z,88374.81
2024-01-05T22:54:10.285Z,88376.75
2024-01-05T22:56:36.595Z,88370.06
2024-01-05T22:59:02.871Z,88370.94
2024-01-05T23:01:29.173Z,88375.19
2024-01-05T23:03:55.546Z,88378.78
2024-01-05T23:06:22.023Z,88369.53
2024-01-05T23:08:50.257Z,88369.84
2024-01-05T23:11:16.540Z,88369.53
2024-01-05T23:13:42.828Z,88371.28
2024-01-05T23:16:09.305Z,88365.28
2024-01-05T23:18:35.877Z,88367.34
2024-01-05T23:21:02.225Z,88371.00
2024-01-05T23:23:28.499Z,88366.25
2024-01-05T23:25:54.775Z,88369.69
2024-01-05T23:28:21.066Z,88369.28
2024-01-05T23:30:47.429Z,88377.34
2024-01-05T23:33:13.892Z,88374.75
2024-01-05T23:35:40.272Z,88388.72
2024-01-05T23:38:06.552Z,88389.53
2024-01-05T23:40:32.859Z,88390.66
2024-01-05T23:42:59.142Z,88394.72
2024-01-05T23:45:25.445Z,88395.72
2024-01-05T23:47:51.841Z,88392.06
2024-01-05T23:50:18.171Z,88384.00
2024-01-05T23:52:45.085Z,88395.06
2024-01-05T23:55:11.346Z,88395.56
2024-01-05T23:57:37.638Z,88393.66
